Palembang
Home > Kaskuser Regional > INDONESIA > SUMATERA > Palembang > ▓▓▒▒ Radar Cuaca Palembang dan Sekitarnya ▒▒▓▓
Total Views: 14903 Share : Facebook ShareFacebook Twitter ShareTwitter Google+ ShareGoogle+
Page 7 of 64 | ‹ First  < 2 3 4 5 6 7 8 9 10 11 12 >  Last ›

dianabazz - 24/06/2011 12:47 PM
#121

update siang sebelum pulang

FTID32 WIPP 240443
TAF WIPP 240440Z 2406/2506 15009KT 9999 SCT017 TEMPO 2409/2413 17010KT 7000 - RA FEW020CB SCT015 BECMG 2419/2421 5000 HZ SCT015 BECMG 2501/2503 14006KT 9999 NSW SCT015=

Bingung cara bacanya???bingungs
klik aja Baca TAFOR
dianabazz - 24/06/2011 12:48 PM
#122

▓▓▒▒ Radar Cuaca Palembang dan Sekitarnya ▒▒▓▓
pondok88 - 24/06/2011 12:59 PM
#123

Quote:
Original Posted By dianabazz
▓▓▒▒ Radar Cuaca Palembang dan Sekitarnya ▒▒▓▓


takuts
untung agak jao..
tobeli - 24/06/2011 11:06 PM
#124

Quote:
Original Posted By dianabazz
▓▓▒▒ Radar Cuaca Palembang dan Sekitarnya ▒▒▓▓


nah kw makmano ini kagets:
untung ak d plembang, sungi musi tek gelombang o
pondok88 - 24/06/2011 11:09 PM
#125

Quote:
Original Posted By tobeli
nah kw makmano ini kagets:
untung ak d plembang, sungi musi tek gelombang o


men kw tecebur di sungai musi ceto jadi tsunami takut

ngacir:
dianabazz - 25/06/2011 08:04 AM
#126

Quote:
Original Posted By pondok88
takuts
untung agak jao..

tenang bae mang caknyo aman bae klo dari gelombang palembang ni

Quote:
Original Posted By tobeli
nah kw makmano ini kagets:
untung ak d plembang, sungi musi tek gelombang o

klo sungi jarang gelombang tinggi, yang sring tu arus deres. klo gelombang tinggi tu di laut

Quote:
Original Posted By pondok88
men kw tecebur di sungai musi ceto jadi tsunami takut

ngacir:


cup dak melok2 anak mudo ngacir:
dianabazz - 25/06/2011 08:08 AM
#127

▓▓▒▒ Radar Cuaca Palembang dan Sekitarnya ▒▒▓▓
Arestullah - 25/06/2011 08:12 AM
#128

Quote:
Original Posted By dianabazz
▓▓▒▒ Radar Cuaca Palembang dan Sekitarnya ▒▒▓▓


mati mak, tinggi nian sampe 33 derajat. Ontong siang ari bedingin teros bawa AC... hammer:

Mokase mang selalu apdet semua hal tentang cuaca, sangat nolong...
dianabazz - 25/06/2011 08:25 AM
#129

▓▓▒▒ Radar Cuaca Palembang dan Sekitarnya ▒▒▓▓
dianabazz - 25/06/2011 08:34 AM
#130

Quote:
Original Posted By Arestullah
mati mak, tinggi nian sampe 33 derajat. Ontong siang ari bedingin teros bawa AC... hammer:

Mokase mang selalu apdet semua hal tentang cuaca, sangat nolong...


santai bae mang, gek jg ngerasoke yang 34 suhu nyosun:
alhamdulillah klo trit ini beguno kissing:
dianabazz - 25/06/2011 08:36 AM
#131

Tafor

FTID32 WIPP 250000
TAF WIPP 242350Z 2500/2524 00000KT 3000 HZ FEW012 BECMG 2501/2503 15010KT 9999 NSW SCT016 TEMPO 2521/2524 00000KT 4000 HZ SCT012=

Bingung cara bacanya???bingungs
klik aja Baca TAFOR
Arestullah - 25/06/2011 08:41 AM
#132

Quote:
Original Posted By dianabazz
Tafor

FTID32 WIPP 250000
TAF WIPP 242350Z 2500/2524 00000KT 3000 HZ FEW012 BECMG 2501/2503 15010KT 9999 NSW SCT016 TEMPO 2521/2524 00000KT 4000 HZ SCT012=


kalu kode mak ini nih cak mano ngartikenyo mang, aku selalu bingung...
dianabazz - 25/06/2011 09:13 AM
#133

Quote:
Original Posted By dianabazz
Tafor

FTID32 WIPP 250000
TAF WIPP 242350Z 2500/2524 00000KT 3000 HZ FEW012 BECMG 2501/2503 15010KT 9999 NSW SCT016 TEMPO 2521/2524 00000KT 4000 HZ SCT012=


Bingung cara bacanya???bingungs
klik aja Baca TAFOR

cubo bae pecahke mang, itung2 belajar mecahke kode
biaso dibaco pilot ini
tobeli - 25/06/2011 09:46 AM
#134

Quote:
Original Posted By pondok88
men kw tecebur di sungai musi ceto jadi tsunami takut

ngacir:

batabig
awak besak la kw mad:
Quote:
Original Posted By dianabazz

klo sungi jarang gelombang tinggi, yang sring tu arus deres. klo gelombang tinggi tu di laut

mk ny lemak tgl d plembang o
dak tek ancaman tsunami samo gempa p
Quote:
Original Posted By dianabazz
Tafor

FTID32 WIPP 250000
TAF WIPP 242350Z 2500/2524 00000KT 3000 HZ FEW012 BECMG 2501/2503 15010KT 9999 NSW SCT016 TEMPO 2521/2524 00000KT 4000 HZ SCT012=

Bingung cara bacanya???bingungs
klik aja baca TAFOR


sara ck ny kk matabelo:
dianabazz - 25/06/2011 10:14 AM
#135

Quote:
Original Posted By tobeli
batabig
awak besak la kw mad:

mk ny lemak tgl d plembang o
dak tek ancaman tsunami samo gempa p


sara ck ny kk matabelo:


aman bae klo di palembang ni. lempeng gempa jauh, gunung jauh, laut jauh.jd termasuk aman. paling dapet kiriman tulah

dak susah bik, cubo bae pecahke kodenyo
dianabazz - 25/06/2011 05:43 PM
#136

Tafor

FTID32 WIPP 250450
TAF WIPP 250440Z 2506/2606 15010KT 9999 SCT016 TEMPO 2521/2601 00000KT 4000 HZ SCT015 BECMG 2601/2603 14008KT 9999 NSW SCT015=


Bingung cara bacanya???bingungs
klik aja Cara membaca TAFOR
Arestullah - 25/06/2011 06:00 PM
#137

Quote:
Original Posted By dianabazz
Bingung cara bacanya???bingungs
klik aja Baca TAFOR

cubo bae pecahke mang, itung2 belajar mecahke kode
biaso dibaco pilot ini

OK ngerti...
Mokase ye..., ini mamang apo bibik?!
dianabazz - 26/06/2011 09:36 AM
#138

Quote:
Original Posted By Arestullah
OK ngerti...
Mokase ye..., ini mamang apo bibik?!


:thumbup senang aq men ado yg biso mbaconyo
dalem celano ado daging tumbuh mang D
dianabazz - 26/06/2011 10:09 AM
#139

▓▓▒▒ Radar Cuaca Palembang dan Sekitarnya ▒▒▓▓
dianabazz - 26/06/2011 10:16 AM
#140

Tafor

FTID32 WIPP 252320
TAF WIPP 252300Z 2600/2624 00000KT 5000 HZ FEW012 BECMG 2601/2603 13009KT 9999 NSW SCT016 TEMPO 2620/2624 11005KT 3000 HZ FEW015=


Bingung cara bacanya???bingungs
klik aja Cara membaca TAFOR
Page 7 of 64 | ‹ First  < 2 3 4 5 6 7 8 9 10 11 12 >  Last ›
Home > Kaskuser Regional > INDONESIA > SUMATERA > Palembang > ▓▓▒▒ Radar Cuaca Palembang dan Sekitarnya ▒▒▓▓